Time;durP1;ratioP1;P1;durP2;ratioP2;P2;SDS_P1;SDS_P2;PMS_P1;PMS_P2;Temp;Humidity;BMP_temperature;BMP_pressure;BME280_temperature;BME280_humidity;BME280_pressure;Samples;Min_cycle;Max_cycle;Signal;HPM_P1;HPM_P2
2023/08/08 00:00:59;;;;;;;1.37;1.20;;;16.50;99.90;;;;;;1937405;72;27104;-87
2023/08/08 00:03:48;;;;;;;1.20;1.10;;;16.40;99.90;;;;;;1942871;72;25325;-87
2023/08/08 00:06:38;;;;;;;2.60;1.10;;;16.40;99.90;;;;;;1935656;72;25682;-87
2023/08/08 00:09:27;;;;;;;1.80;1.20;;;16.40;99.90;;;;;;1907510;75;25752;-87
2023/08/08 00:12:20;;;;;;;1.60;1.23;;;16.50;99.90;;;;;;1881672;75;25243;-87
2023/08/08 00:15:11;;;;;;;1.93;1.27;;;16.60;99.90;;;;;;1887780;75;25270;-87
2023/08/08 00:45:09;;;;;;;0.90;0.90;;;16.70;99.90;;;;;;1952971;72;27037;-87
2023/08/08 00:50:55;;;;;;;3.07;0.93;;;16.60;99.90;;;;;;1924828;72;27084;-87
2023/08/08 00:56:29;;;;;;;2.13;1.30;;;16.60;99.90;;;;;;1960848;71;26952;-87
2023/08/08 00:59:20;;;;;;;1.50;1.00;;;16.60;99.90;;;;;;1885613;74;25860;-87
2023/08/08 01:02:09;;;;;;;5.73;1.30;;;16.60;99.90;;;;;;1893087;74;25684;-87
2023/08/08 01:04:59;;;;;;;3.83;1.07;;;16.70;99.90;;;;;;1880808;74;25202;-87
2023/08/08 01:10:38;;;;;;;1.90;1.00;;;16.60;99.90;;;;;;1944461;72;27446;-87
2023/08/08 01:17:23;;;;;;;2.37;1.00;;;16.60;99.90;;;;;;1942470;73;27344;-88
2023/08/08 01:36:59;;;;;;;4.83;1.17;;;16.60;99.90;;;;;;1955586;72;27042;-86
2023/08/08 01:39:53;;;;;;;2.83;1.00;;;16.50;99.90;;;;;;1919166;73;25848;-87
2023/08/08 01:42:47;;;;;;;1.93;1.10;;;16.50;99.90;;;;;;1922572;73;25337;-87
2023/08/08 01:45:37;;;;;;;1.67;1.00;;;16.40;99.90;;;;;;1894938;73;25677;-87
2023/08/08 02:02:06;;;;;;;4.03;1.20;;;16.30;99.90;;;;;;1866545;72;27068;-87
2023/08/08 02:05:02;;;;;;;3.10;1.17;;;16.40;99.90;;;;;;1867855;75;25756;-87
2023/08/08 02:10:44;;;;;;;2.80;1.20;;;16.40;99.90;;;;;;1942420;72;27096;-87
2023/08/08 02:13:33;;;;;;;1.20;1.10;;;16.30;99.90;;;;;;1933147;73;25356;-87
2023/08/08 02:16:22;;;;;;;2.47;1.20;;;16.40;99.90;;;;;;1930497;73;25427;-87
2023/08/08 02:19:11;;;;;;;2.47;0.93;;;16.40;99.90;;;;;;1932653;73;25543;-87
2023/08/08 02:22:00;;;;;;;7.13;1.10;;;16.30;99.90;;;;;;1931834;73;25295;-87
2023/08/08 02:24:54;;;;;;;4.77;1.30;;;16.40;99.90;;;;;;1943929;73;25209;-87
2023/08/08 02:27:46;;;;;;;1.13;1.00;;;16.40;99.90;;;;;;1921180;73;25601;-87
2023/08/08 02:33:25;;;;;;;3.40;1.20;;;16.30;99.90;;;;;;1938740;72;27076;-87
2023/08/08 02:39:24;;;;;;;5.50;1.23;;;16.30;99.90;;;;;;1949044;72;26769;-86
2023/08/08 02:45:08;;;;;;;3.87;1.20;;;16.40;99.90;;;;;;1957760;72;26820;-87
2023/08/08 03:01:15;;;;;;;3.73;1.30;;;16.30;99.90;;;;;;1864691;76;27195;-86
2023/08/08 03:06:45;;;;;;;2.00;1.10;;;16.30;99.90;;;;;;1975974;71;26991;-87
2023/08/08 03:09:34;;;;;;;1.97;1.10;;;16.30;99.90;;;;;;1951563;72;25218;-87
2023/08/08 03:16:08;;;;;;;3.97;1.27;;;16.20;99.90;;;;;;1952832;72;26971;-87
2023/08/08 03:44:02;;;;;;;2.60;1.20;;;16.30;99.90;;;;;;1863706;73;27594;-87
2023/08/08 03:49:41;;;;;;;3.40;1.37;;;16.20;99.90;;;;;;1923474;72;27058;-87
2023/08/08 03:52:34;;;;;;;4.03;1.10;;;16.20;99.90;;;;;;1896781;75;25830;-87
2023/08/08 03:55:27;;;;;;;2.73;1.10;;;16.30;99.90;;;;;;1900992;75;25579;-87
2023/08/08 03:58:26;;;;;;;;;;;;;;;;;;;;;
2023/08/08 04:01:07;;;;;;;1.67;1.10;;;16.30;99.90;;;;;;1883854;75;25300;-87
2023/08/08 04:03:56;;;;;;;6.37;1.20;;;16.20;99.90;;;;;;1891431;73;25252;-87
2023/08/08 04:10:32;;;;;;;4.50;1.67;;;16.10;99.90;;;;;;1980901;71;26923;-87
2023/08/08 04:16:19;;;;;;;2.77;1.70;;;15.90;99.90;;;;;;1951681;72;26912;-88
2023/08/08 04:32:46;;;;;;;4.93;1.53;;;15.80;99.90;;;;;;1905246;73;27060;-87
2023/08/08 04:38:48;;;;;;;1.90;1.80;;;15.70;99.90;;;;;;1985263;71;27087;-87
2023/08/08 04:41:40;;;;;;;3.27;1.77;;;15.70;99.90;;;;;;1979953;70;26087;-87
2023/08/08 04:44:31;;;;;;;2.47;1.63;;;15.70;99.90;;;;;;1991168;72;25235;-87
2023/08/08 04:47:19;;;;;;;5.30;1.70;;;15.70;99.90;;;;;;1952303;72;25269;-87
2023/08/08 04:50:12;;;;;;;5.43;1.57;;;15.60;99.90;;;;;;1991579;72;25730;-87
2023/08/08 04:53:18;;;;;;;4.40;1.50;;;15.70;99.90;;;;;;1981253;72;25225;-87
2023/08/08 04:56:09;;;;;;;6.03;1.77;;;15.70;99.90;;;;;;1991861;72;25185;-86
2023/08/08 04:58:58;;;;;;;4.07;1.70;;;15.70;99.90;;;;;;1956076;72;25661;-87
2023/08/08 05:01:46;;;;;;;5.07;1.60;;;15.70;99.90;;;;;;1965221;72;26185;-86
2023/08/08 05:04:36;;;;;;;2.03;1.13;;;15.70;99.90;;;;;;1992536;71;25161;-87
2023/08/08 05:07:25;;;;;;;1.57;1.30;;;15.70;99.90;;;;;;1989613;72;25193;-86
2023/08/08 05:10:16;;;;;;;3.87;1.70;;;15.70;99.90;;;;;;1989770;72;26175;-87
2023/08/08 05:13:26;;;;;;;2.00;1.33;;;15.80;99.90;;;;;;1988707;72;25763;-87
2023/08/08 05:16:22;;;;;;;1.73;1.13;;;15.80;99.90;;;;;;1969059;72;25219;-87
2023/08/08 05:22:05;;;;;;;1.40;1.30;;;15.80;99.90;;;;;;1952207;72;29415;-87
2023/08/08 05:24:55;;;;;;;2.37;1.30;;;15.80;99.90;;;;;;1916111;73;25496;-86
2023/08/08 05:54:46;;;;;;;1.87;1.57;;;15.70;99.90;;;;;;1845669;75;26863;-86
2023/08/08 06:00:43;;;;;;;3.57;1.60;;;15.70;99.90;;;;;;1947413;72;27647;-87
2023/08/08 06:03:33;;;;;;;5.87;1.57;;;15.80;99.90;;;;;;1867451;76;25222;-87
2023/08/08 06:06:22;;;;;;;7.37;1.73;;;15.80;99.90;;;;;;1916080;73;25249;-87
2023/08/08 06:09:18;;;;;;;3.90;1.07;;;15.80;99.90;;;;;;1916008;73;25656;-87
2023/08/08 06:12:12;;;;;;;3.93;1.67;;;15.70;99.90;;;;;;1922435;73;25731;-87
2023/08/08 06:15:06;;;;;;;4.23;1.77;;;15.70;99.90;;;;;;1934863;73;25202;-87
2023/08/08 06:17:54;;;;;;;2.10;1.90;;;15.70;99.90;;;;;;1927603;73;25159;-87
2023/08/08 06:20:43;;;;;;;2.80;1.90;;;15.70;99.90;;;;;;1934274;73;25662;-87
2023/08/08 06:23:49;;;;;;;6.23;1.63;;;15.70;99.90;;;;;;1919539;73;25256;-87
2023/08/08 06:26:39;;;;;;;1.67;1.57;;;15.70;99.90;;;;;;1925235;73;25664;-87
2023/08/08 06:29:27;;;;;;;4.77;1.67;;;15.70;99.90;;;;;;1919833;73;25544;-87
2023/08/08 06:32:16;;;;;;;1.80;1.33;;;15.70;99.90;;;;;;1921442;73;25946;-87
2023/08/08 06:35:05;;;;;;;4.90;1.57;;;15.70;99.90;;;;;;1930404;73;25697;-87
2023/08/08 06:37:55;;;;;;;2.70;1.43;;;15.70;99.90;;;;;;1914239;73;25229;-87
2023/08/08 06:43:30;;;;;;;3.47;1.70;;;15.80;99.90;;;;;;1950395;72;27167;-87
2023/08/08 06:46:37;;;;;;;2.40;1.40;;;15.90;99.90;;;;;;1917171;73;25238;-87
2023/08/08 06:49:27;;;;;;;1.53;1.43;;;15.90;99.90;;;;;;1925165;73;25678;-87
2023/08/08 07:05:24;;;;;;;1.60;1.50;;;15.90;99.90;;;;;;1866933;76;27567;-87
2023/08/08 07:11:14;;;;;;;2.43;1.40;;;15.90;99.90;;;;;;1961005;72;26972;-87
2023/08/08 07:14:19;;;;;;;3.07;1.50;;;15.90;99.90;;;;;;1934342;73;25215;-87
2023/08/08 07:17:10;;;;;;;1.53;1.30;;;16.00;99.90;;;;;;1923822;73;25592;-87
2023/08/08 07:19:59;;;;;;;1.60;1.10;;;15.90;99.90;;;;;;1878863;75;25200;-86
2023/08/08 07:22:59;;;;;;;2.87;1.20;;;15.90;99.90;;;;;;1869878;76;25680;-87
2023/08/08 07:25:48;;;;;;;1.80;1.13;;;15.90;99.90;;;;;;1861315;76;25343;-86
2023/08/08 07:42:15;;;;;;;1.20;1.10;;;16.00;99.90;;;;;;1919147;72;27568;-86
2023/08/08 08:06:26;;;;;;;1.17;0.90;;;16.10;99.90;;;;;;1954929;71;27321;-87
2023/08/08 08:09:52;;;;;;;1.10;1.10;;;16.10;99.90;;;;;;1932625;73;25290;-87
2023/08/08 08:13:20;;;;;;;1.10;1.10;;;16.20;99.90;;;;;;1899016;74;25223;-88
2023/08/08 08:23:47;;;;;;;1.60;1.10;;;16.40;99.90;;;;;;1920793;73;25791;-87
2023/08/08 08:26:52;;;;;;;1.30;1.20;;;16.40;99.90;;;;;;1908531;73;25261;-87
2023/08/08 08:37:16;;;;;;;1.57;1.10;;;16.50;99.90;;;;;;1932742;73;25282;-87
2023/08/08 08:55:53;;;;;;;0.90;0.90;;;16.60;99.90;;;;;;1866752;75;27604;-87
2023/08/08 08:59:07;;;;;;;0.90;0.80;;;17.20;99.90;;;;;;1860283;75;25294;-87
2023/08/08 09:15:15;;;;;;;0.93;0.80;;;16.90;99.90;;;;;;1904128;74;27057;-87
2023/08/08 09:33:24;;;;;;;0.70;0.60;;;16.50;99.90;;;;;;1948098;72;27595;-87
2023/08/08 09:39:21;;;;;;;2.10;0.83;;;17.30;99.90;;;;;;1943073;72;27650;-87
2023/08/08 09:42:12;;;;;;;0.70;0.70;;;17.00;99.90;;;;;;1887074;74;25310;-87
2023/08/08 09:45:06;;;;;;;2.13;0.70;;;16.90;99.90;;;;;;1906444;73;25687;-87
2023/08/08 09:47:56;;;;;;;2.60;0.80;;;16.80;99.90;;;;;;1903199;73;25248;-88
2023/08/08 09:51:04;;;;;;;0.83;0.70;;;16.80;99.90;;;;;;1899111;74;25322;-87
2023/08/08 09:53:54;;;;;;;0.90;0.90;;;16.80;99.90;;;;;;1911510;73;25354;-87
2023/08/08 09:56:45;;;;;;;1.27;1.03;;;16.80;99.90;;;;;;1888787;74;25227;-87
2023/08/08 09:59:38;;;;;;;1.00;1.00;;;16.90;99.90;;;;;;1886238;73;25790;-87
2023/08/08 10:02:29;;;;;;;1.10;1.10;;;16.90;99.90;;;;;;1912691;75;25287;-87
2023/08/08 10:05:18;;;;;;;1.10;1.10;;;16.90;99.90;;;;;;1913490;75;25259;-87
2023/08/08 10:35:41;;;;;;;1.20;1.00;;;16.60;99.90;;;;;;1914634;74;27880;-87
2023/08/08 10:41:26;;;;;;;1.33;1.20;;;16.40;99.90;;;;;;1924595;74;28417;-87
2023/08/08 10:44:18;;;;;;;2.00;1.20;;;16.60;99.90;;;;;;1872588;76;25834;-87
2023/08/08 11:00:35;;;;;;;1.07;0.93;;;17.10;99.90;;;;;;1869835;75;27077;-86
2023/08/08 11:06:30;;;;;;;1.10;0.93;;;17.00;99.90;;;;;;1940089;72;27550;-87
2023/08/08 11:09:22;;;;;;;4.00;1.10;;;16.90;99.90;;;;;;1914611;73;25283;-87
2023/08/08 11:12:17;;;;;;;1.10;0.97;;;16.90;99.90;;;;;;1939116;73;25709;-87
2023/08/08 11:15:15;;;;;;;4.90;1.07;;;16.70;99.90;;;;;;1930403;72;25615;-87
2023/08/08 11:18:08;;;;;;;0.93;0.90;;;16.70;99.90;;;;;;1928265;73;25218;-87
2023/08/08 11:20:59;;;;;;;0.80;0.80;;;16.70;99.90;;;;;;1926194;73;25159;-87
2023/08/08 11:23:50;;;;;;;1.60;0.90;;;16.70;99.90;;;;;;1893001;75;25164;-87
2023/08/08 11:26:41;;;;;;;1.10;1.00;;;16.70;99.90;;;;;;1929637;73;25212;-87
2023/08/08 11:29:36;;;;;;;3.70;1.00;;;16.60;99.90;;;;;;1929416;73;25187;-87
2023/08/08 11:32:27;;;;;;;1.77;1.10;;;16.60;99.90;;;;;;1904811;73;26292;-88
2023/08/08 11:35:35;;;;;;;2.00;1.27;;;16.70;99.90;;;;;;1932022;73;25708;-87
2023/08/08 11:38:27;;;;;;;1.27;1.10;;;16.80;99.90;;;;;;1920070;73;25301;-87
2023/08/08 11:41:17;;;;;;;1.10;1.00;;;16.90;99.90;;;;;;1921215;73;25210;-87
2023/08/08 11:44:11;;;;;;;0.90;0.90;;;16.90;99.90;;;;;;1906522;73;25242;-87
2023/08/08 11:47:03;;;;;;;0.80;0.80;;;17.00;99.90;;;;;;1934182;73;25185;-88
2023/08/08 11:53:58;;;;;;;0.80;0.80;;;17.40;99.90;;;;;;1981553;71;27006;-87
2023/08/08 11:56:56;;;;;;;0.80;0.80;;;17.20;99.90;;;;;;1971790;72;25693;-88
2023/08/08 11:59:46;;;;;;;1.13;0.80;;;17.20;99.90;;;;;;2029302;69;25187;-87
2023/08/08 12:02:50;;;;;;;2.03;1.00;;;17.20;99.90;;;;;;2028583;69;25253;-88
2023/08/08 12:05:43;;;;;;;1.00;1.00;;;17.10;99.90;;;;;;2037274;69;25595;-87
2023/08/08 12:08:33;;;;;;;1.80;1.20;;;17.00;99.90;;;;;;2037119;69;25139;-88
2023/08/08 12:24:31;;;;;;;1.00;1.00;;;17.10;99.90;;;;;;1861835;75;27575;-88
2023/08/08 12:30:17;;;;;;;2.43;1.00;;;17.40;99.90;;;;;;1940448;72;28344;-87
2023/08/08 12:33:07;;;;;;;1.00;1.00;;;17.40;99.90;;;;;;1911828;74;25781;-88
2023/08/08 12:35:57;;;;;;;2.20;1.27;;;17.30;99.90;;;;;;1941559;73;25862;-88
2023/08/08 12:41:49;;;;;;;1.23;1.10;;;17.30;99.90;;;;;;1932250;72;28066;-87
2023/08/08 12:44:37;;;;;;;1.10;1.10;;;17.30;99.90;;;;;;1890390;75;25244;-87
2023/08/08 12:47:31;;;;;;;1.00;1.00;;;17.20;99.90;;;;;;1895963;75;26421;-87
2023/08/08 13:03:35;;;;;;;1.77;0.97;;;16.90;99.90;;;;;;1860168;75;28315;-87
2023/08/08 13:06:25;;;;;;;1.30;1.20;;;16.60;99.90;;;;;;1806602;76;25772;-87
2023/08/08 13:12:07;;;;;;;1.03;0.90;;;16.70;99.90;;;;;;1953747;72;27625;-88
2023/08/08 13:14:56;;;;;;;0.97;0.97;;;16.70;99.90;;;;;;1935161;73;25316;-88
2023/08/08 13:17:46;;;;;;;1.27;1.17;;;16.70;99.90;;;;;;1922794;73;26386;-88
2023/08/08 13:33:44;;;;;;;1.40;1.00;;;16.60;99.90;;;;;;1861360;76;26800;-88
2023/08/08 13:39:14;;;;;;;1.10;1.10;;;16.60;99.90;;;;;;1941768;72;27016;-88
2023/08/08 13:42:08;;;;;;;2.97;1.10;;;16.60;99.90;;;;;;1873060;75;25285;-88
2023/08/08 13:44:59;;;;;;;1.87;1.10;;;16.70;99.90;;;;;;1869501;76;25228;-88
2023/08/08 13:47:49;;;;;;;4.00;1.20;;;16.80;99.90;;;;;;1876352;76;25235;-88
2023/08/08 13:50:39;;;;;;;1.20;1.03;;;16.80;99.90;;;;;;1869159;76;25241;-88
2023/08/08 13:56:22;;;;;;;1.70;1.00;;;16.90;99.90;;;;;;1966274;72;27461;-88
2023/08/08 14:02:05;;;;;;;1.87;1.10;;;17.10;99.90;;;;;;1947716;72;27958;-88
2023/08/08 14:07:54;;;;;;;1.10;1.00;;;16.80;99.90;;;;;;1960705;72;27690;-88
2023/08/08 14:10:44;;;;;;;5.50;1.27;;;16.50;99.90;;;;;;1922764;73;25343;-88
2023/08/08 14:13:34;;;;;;;1.00;1.00;;;16.40;99.90;;;;;;1940287;73;25742;-88
2023/08/08 14:16:25;;;;;;;2.30;1.37;;;16.40;99.90;;;;;;1922002;73;25231;-88
2023/08/08 14:19:19;;;;;;;1.50;1.40;;;16.30;99.90;;;;;;1930423;73;25631;-88
2023/08/08 14:22:11;;;;;;;3.00;1.30;;;16.40;99.90;;;;;;1914654;73;25300;-88
2023/08/08 14:25:05;;;;;;;1.27;1.20;;;16.50;99.90;;;;;;1919315;73;25829;-88
2023/08/08 14:31:07;;;;;;;1.20;0.90;;;16.50;99.90;;;;;;1929817;73;25224;-88
2023/08/08 14:33:57;;;;;;;1.07;0.97;;;16.50;99.90;;;;;;1922950;73;25237;-88
2023/08/08 14:36:46;;;;;;;3.10;1.10;;;16.50;99.90;;;;;;1922847;73;25290;-88
2023/08/08 14:42:55;;;;;;;1.10;1.10;;;16.60;99.90;;;;;;1910528;74;25305;-88
2023/08/08 14:45:45;;;;;;;2.17;1.10;;;16.60;99.90;;;;;;1902257;75;25280;-87
2023/08/08 14:48:34;;;;;;;2.10;1.20;;;16.60;99.90;;;;;;1886593;75;25249;-88
2023/08/08 14:51:24;;;;;;;1.50;1.30;;;16.50;99.90;;;;;;1902314;75;25696;-88
2023/08/08 14:54:13;;;;;;;1.20;1.20;;;16.50;99.90;;;;;;1903914;75;25217;-88
2023/08/08 14:59:47;;;;;;;1.27;1.20;;;16.60;99.90;;;;;;1938836;72;27138;-88
2023/08/08 15:02:41;;;;;;;2.33;1.27;;;16.60;99.90;;;;;;1891281;75;25346;-88
2023/08/08 15:05:30;;;;;;;1.20;1.10;;;16.70;99.90;;;;;;1884605;75;25721;-88
2023/08/08 15:11:01;;;;;;;1.53;1.43;;;16.50;99.90;;;;;;1908415;74;28395;-87
2023/08/08 15:16:33;;;;;;;1.40;1.30;;;16.50;99.90;;;;;;1936950;72;26724;-88
2023/08/08 15:19:25;;;;;;;1.97;1.30;;;16.50;99.90;;;;;;1878019;75;25319;-88
2023/08/08 15:22:13;;;;;;;1.93;1.40;;;16.50;99.90;;;;;;1894616;75;25690;-88
2023/08/08 15:25:03;;;;;;;7.17;1.73;;;16.60;99.90;;;;;;1881468;75;25331;-88
2023/08/08 15:27:52;;;;;;;3.17;1.27;;;16.60;99.90;;;;;;1871318;75;25710;-88
2023/08/08 15:30:41;;;;;;;2.60;1.43;;;16.60;99.90;;;;;;1887671;75;25226;-88
2023/08/08 15:33:32;;;;;;;3.70;1.53;;;16.70;99.90;;;;;;1878411;75;25778;-88
2023/08/08 15:36:22;;;;;;;1.63;1.43;;;16.70;99.90;;;;;;1877285;75;25610;-88
2023/08/08 15:39:12;;;;;;;1.40;1.30;;;16.70;99.90;;;;;;1904038;75;25306;-88
2023/08/08 15:42:01;;;;;;;1.77;1.40;;;16.60;99.90;;;;;;1867074;75;25315;-88
2023/08/08 15:57:53;;;;;;;1.80;1.50;;;16.60;99.90;;;;;;1862082;75;27154;-88
2023/08/08 16:16:47;;;;;;;1.60;1.50;;;16.70;99.90;;;;;;1944303;71;27410;-88
2023/08/08 16:19:36;;;;;;;3.00;1.40;;;16.70;99.90;;;;;;1929105;74;26011;-88
2023/08/08 16:22:25;;;;;;;1.60;1.50;;;16.70;99.90;;;;;;1937913;74;25208;-89
2023/08/08 16:25:14;;;;;;;1.73;1.40;;;16.60;99.90;;;;;;1924343;72;25322;-88
2023/08/08 16:28:05;;;;;;;2.50;1.30;;;16.60;99.90;;;;;;1914635;74;25269;-88
2023/08/08 16:30:57;;;;;;;1.47;1.40;;;16.50;99.90;;;;;;1926569;72;25370;-88
2023/08/08 16:33:48;;;;;;;1.27;1.20;;;16.30;99.90;;;;;;1926401;74;25339;-88
2023/08/08 16:36:39;;;;;;;1.20;1.20;;;16.30;99.90;;;;;;1917469;74;25629;-88
2023/08/08 16:39:29;;;;;;;2.50;1.30;;;16.30;99.90;;;;;;1940832;73;25179;-88
2023/08/08 16:45:00;;;;;;;1.00;1.00;;;16.30;99.90;;;;;;1958874;72;27408;-88
2023/08/08 16:47:50;;;;;;;1.00;1.00;;;16.10;99.90;;;;;;1952788;73;25220;-88
2023/08/08 16:50:40;;;;;;;1.00;0.77;;;16.00;99.90;;;;;;1912805;73;25792;-87
2023/08/08 16:56:16;;;;;;;6.00;1.10;;;15.30;99.90;;;;;;1937946;72;27541;-87
2023/08/08 16:59:06;;;;;;;1.67;0.90;;;15.10;99.90;;;;;;1942612;73;25207;-87
2023/08/08 17:01:55;;;;;;;1.13;0.90;;;15.00;99.90;;;;;;1946467;73;25234;-87
2023/08/08 17:04:44;;;;;;;1.13;1.00;;;15.00;99.90;;;;;;1926498;73;25275;-87
2023/08/08 17:07:36;;;;;;;3.50;0.87;;;14.90;99.90;;;;;;1941936;73;25223;-89
2023/08/08 17:10:26;;;;;;;3.13;1.30;;;14.90;99.90;;;;;;1936503;73;25296;-88
2023/08/08 17:13:15;;;;;;;2.40;1.13;;;14.90;99.90;;;;;;1943822;73;25284;-88
2023/08/08 17:16:06;;;;;;;2.57;1.20;;;14.80;99.90;;;;;;1939222;73;25218;-88
2023/08/08 17:18:55;;;;;;;7.67;1.67;;;14.90;99.90;;;;;;1937500;73;25845;-89
2023/08/08 17:21:44;;;;;;;3.67;0.97;;;14.80;99.90;;;;;;1946775;73;25714;-88
2023/08/08 17:24:32;;;;;;;3.87;0.97;;;14.90;99.90;;;;;;1947265;73;25278;-88
2023/08/08 17:27:22;;;;;;;6.87;1.30;;;14.80;99.90;;;;;;1946767;73;25213;-88
2023/08/08 17:30:12;;;;;;;11.00;1.30;;;14.90;99.90;;;;;;1931043;73;25217;-88
2023/08/08 17:33:03;;;;;;;10.53;1.47;;;14.70;99.90;;;;;;1934392;73;25287;-88
2023/08/08 17:38:48;;;;;;;6.67;1.50;;;14.60;99.90;;;;;;1906980;74;27708;-88
2023/08/08 17:44:29;;;;;;;11.10;1.50;;;14.50;99.90;;;;;;1945749;72;26913;-88
2023/08/08 17:47:19;;;;;;;12.93;1.30;;;14.50;99.90;;;;;;1926321;73;25263;-88
2023/08/08 17:50:10;;;;;;;6.93;1.50;;;14.50;99.90;;;;;;1934533;73;25267;-88
2023/08/08 17:52:59;;;;;;;8.97;1.30;;;14.40;99.90;;;;;;1923967;73;25226;-87
2023/08/08 17:55:49;;;;;;;16.27;1.73;;;14.40;99.90;;;;;;1910472;73;25257;-89
2023/08/08 17:58:52;;;;;;;12.70;1.67;;;14.30;99.90;;;;;;1916651;73;25352;-88
2023/08/08 18:18:53;;;;;;;13.03;2.40;;;14.40;99.90;;;;;;1942395;72;27177;-88
2023/08/08 18:22:29;;;;;;;12.50;2.00;;;14.40;99.90;;;;;;1924476;73;25322;-88
2023/08/08 18:25:25;;;;;;;17.37;2.20;;;14.30;99.90;;;;;;1923326;73;25184;-89
2023/08/08 18:28:36;;;;;;;21.30;3.07;;;14.30;99.90;;;;;;1924894;73;25249;-88
2023/08/08 18:32:24;;;;;;;27.10;3.83;;;14.40;99.90;;;;;;1917959;73;25576;-89
2023/08/08 18:35:30;;;;;;;28.87;3.13;;;14.40;99.90;;;;;;1848008;76;26086;-88
2023/08/08 18:42:54;;;;;;;20.10;3.10;;;14.30;99.90;;;;;;1912203;73;25334;-88
2023/08/08 18:49:54;;;;;;;20.77;2.57;;;14.20;99.90;;;;;;1905005;73;25308;-89
2023/08/08 18:52:56;;;;;;;34.23;4.50;;;14.20;99.90;;;;;;1908035;73;25218;-88
2023/08/08 18:56:14;;;;;;;42.23;3.70;;;14.10;99.90;;;;;;1873939;75;25247;-88
2023/08/08 18:59:04;;;;;;;25.70;2.97;;;14.10;99.90;;;;;;1827975;76;25369;-88
2023/08/08 19:02:11;;;;;;;17.00;2.63;;;14.10;99.90;;;;;;1848221;76;25805;-89
2023/08/08 19:05:08;;;;;;;21.40;3.20;;;14.10;99.90;;;;;;1837207;76;25262;-88
2023/08/08 19:08:44;;;;;;;22.90;3.60;;;14.10;99.90;;;;;;1899749;74;25304;-88
2023/08/08 19:11:54;;;;;;;20.57;2.97;;;14.10;99.90;;;;;;1892065;73;25258;-89
2023/08/08 19:29:26;;;;;;;14.53;2.67;;;14.00;99.90;;;;;;1908629;73;27217;-89
2023/08/08 19:47:30;;;;;;;26.23;3.53;;;13.80;99.90;;;;;;1923146;72;26906;-88
2023/08/08 19:56:31;;;;;;;18.50;2.40;;;14.00;99.90;;;;;;1949343;72;27127;-87
2023/08/08 19:59:32;;;;;;;27.27;3.33;;;14.00;99.90;;;;;;1918649;73;25238;-88
2023/08/08 20:02:25;;;;;;;30.13;3.77;;;13.90;99.90;;;;;;1920806;73;25766;-87
2023/08/08 20:05:17;;;;;;;28.20;3.33;;;13.80;99.90;;;;;;1914697;75;26134;-88
2023/08/08 20:09:02;;;;;;;25.73;2.73;;;13.80;99.90;;;;;;1857512;76;25728;-87
2023/08/08 20:16:11;;;;;;;26.50;3.00;;;13.80;99.90;;;;;;1916107;73;26496;-88
2023/08/08 20:19:26;;;;;;;17.37;2.93;;;13.70;99.90;;;;;;1914876;75;25362;-88
2023/08/08 20:22:35;;;;;;;18.93;2.50;;;13.70;99.90;;;;;;1924967;73;25232;-88
2023/08/08 20:29:06;;;;;;;19.23;1.97;;;13.80;99.90;;;;;;1917738;73;25236;-88
2023/08/08 20:35:15;;;;;;;17.23;1.90;;;13.80;99.90;;;;;;1915799;73;25729;-88
2023/08/08 20:38:18;;;;;;;20.60;2.30;;;13.90;99.90;;;;;;1914693;75;25645;-88
2023/08/08 20:54:52;;;;;;;19.37;2.13;;;13.90;99.90;;;;;;1905920;74;27612;-87
2023/08/08 20:57:42;;;;;;;28.80;3.00;;;13.90;99.90;;;;;;1862766;75;25775;-86
2023/08/08 21:14:23;;;;;;;18.80;2.20;;;13.90;99.90;;;;;;1911650;74;28880;-87
2023/08/08 21:17:12;;;;;;;12.70;1.87;;;13.90;99.90;;;;;;1883141;74;25259;-87
2023/08/08 21:23:44;;;;;;;15.03;2.17;;;13.80;99.90;;;;;;1975360;71;26300;-88
2023/08/08 21:26:36;;;;;;;25.40;2.40;;;13.90;99.90;;;;;;1971786;72;25144;-87
2023/08/08 21:29:26;;;;;;;9.97;2.20;;;13.90;99.90;;;;;;2046764;69;25121;-88
2023/08/08 21:35:50;;;;;;;9.13;1.87;;;13.90;99.90;;;;;;2030094;70;25255;-88
2023/08/08 21:38:51;;;;;;;15.13;1.97;;;13.80;99.90;;;;;;2029484;69;25266;-88
2023/08/08 21:56:06;;;;;;;7.43;1.30;;;13.70;99.90;;;;;;1898476;74;31920;-88
2023/08/08 22:17:25;;;;;;;5.97;1.50;;;13.30;99.90;;;;;;1919653;73;25162;-87
2023/08/08 22:20:32;;;;;;;11.30;1.77;;;13.20;99.90;;;;;;1895960;73;25740;-88
2023/08/08 22:23:30;;;;;;;11.23;1.60;;;13.10;99.90;;;;;;1922393;73;25170;-87
2023/08/08 22:26:42;;;;;;;6.57;1.17;;;13.10;99.90;;;;;;1915548;73;25154;-87
2023/08/08 22:47:49;;;;;;;9.73;2.93;;;12.90;99.90;;;;;;1965962;72;32065;-88
2023/08/08 22:50:54;;;;;;;7.53;1.20;;;12.90;99.90;;;;;;1938514;73;26432;-87
2023/08/08 22:57:32;;;;;;;9.93;1.70;;;13.10;99.90;;;;;;1953858;72;27164;-87
2023/08/08 23:00:26;;;;;;;10.80;2.37;;;13.00;99.90;;;;;;1832896;78;25749;-87
2023/08/08 23:03:42;;;;;;;9.83;1.40;;;13.10;99.90;;;;;;1862453;76;25744;-87
2023/08/08 23:10:01;;;;;;;8.33;1.50;;;13.00;99.90;;;;;;1970587;72;27737;-87
2023/08/08 23:18:54;;;;;;;23.50;2.60;;;13.20;99.90;;;;;;1946291;72;30040;-87
2023/08/08 23:22:02;;;;;;;7.83;1.20;;;13.10;99.90;;;;;;1913271;73;25642;-87
2023/08/08 23:25:10;;;;;;;5.27;1.20;;;13.00;99.90;;;;;;1923582;73;25235;-87
2023/08/08 23:28:39;;;;;;;13.93;2.00;;;13.00;99.90;;;;;;1924457;73;25238;-87
2023/08/08 23:31:38;;;;;;;19.70;2.10;;;13.00;99.90;;;;;;1915804;73;25689;-86
2023/08/08 23:35:13;;;;;;;13.03;2.07;;;12.90;99.90;;;;;;1858810;76;25683;-87
2023/08/08 23:38:15;;;;;;;15.60;2.13;;;13.00;99.90;;;;;;1844092;76;25363;-87
2023/08/08 23:41:07;;;;;;;23.47;2.60;;;13.10;99.90;;;;;;1917885;73;25279;-88
2023/08/08 23:47:11;;;;;;;8.23;1.50;;;13.10;99.90;;;;;;2010897;69;27521;-87
2023/08/08 23:50:03;;;;;;;12.67;1.87;;;13.10;99.90;;;;;;1972028;71;25690;-88
2023/08/08 23:53:31;;;;;;;9.67;1.60;;;13.00;99.90;;;;;;1986831;70;25243;-88
2023/08/08 23:56:47;;;;;;;10.37;1.87;;;13.00;99.90;;;;;;1997961;70;25184;-88
